createdAt,value
2023-04-11T00:04:55.270Z,100627.44
2023-04-11T00:09:59.438Z,100625.13
2023-04-11T00:15:02.458Z,100626.59
2023-04-11T00:20:08.393Z,100624.47
2023-04-11T00:25:12.683Z,100630.94
2023-04-11T00:30:15.694Z,100626.97
2023-04-11T00:35:19.817Z,100632.50
2023-04-11T00:40:24.086Z,100636.44
2023-04-11T00:45:27.075Z,100637.22
2023-04-11T00:50:30.038Z,100644.47
2023-04-11T00:55:34.172Z,100638.53
2023-04-11T01:00:38.719Z,100643.06
2023-04-11T01:05:41.752Z,100644.06
2023-04-11T01:10:46.589Z,100653.09
2023-04-11T01:15:49.441Z,100654.25
2023-04-11T01:20:52.690Z,100640.84
2023-04-11T01:25:56.899Z,100640.34
2023-04-11T01:31:00.110Z,100648.19
2023-04-11T01:36:03.454Z,100638.50
2023-04-11T01:41:09.519Z,100646.31
2023-04-11T01:46:12.941Z,100656.72
2023-04-11T01:51:15.877Z,100660.25
2023-04-11T01:56:21.932Z,100667.97
2023-04-11T02:01:24.811Z,100665.50
2023-04-11T02:06:27.790Z,100663.88
2023-04-11T02:11:32.064Z,100670.72
2023-04-11T02:16:34.960Z,100672.59
2023-04-11T02:21:37.672Z,100656.25
2023-04-11T02:26:43.235Z,100660.41
2023-04-11T02:31:46.115Z,100656.28
2023-04-11T02:36:49.034Z,100629.47
2023-04-11T02:41:53.319Z,100613.97
2023-04-11T02:46:56.339Z,100610.72
2023-04-11T02:52:00.422Z,100608.06
2023-04-11T02:57:05.490Z,100600.22
2023-04-11T03:02:08.652Z,100595.19
2023-04-11T03:07:12.614Z,100593.38
2023-04-11T03:12:16.970Z,100583.00
2023-04-11T03:17:28.953Z,100589.22
2023-04-11T03:22:32.296Z,100584.09
2023-04-11T03:27:36.814Z,100600.69
2023-04-11T03:32:40.960Z,100600.03
2023-04-11T03:37:43.772Z,100596.53
2023-04-11T03:42:48.331Z,100616.44
2023-04-11T03:47:55.411Z,100611.31
2023-04-11T03:53:03.483Z,100614.66
2023-04-11T03:58:08.178Z,100620.69
2023-04-11T04:03:13.688Z,100609.66
2023-04-11T04:08:17.875Z,100625.22
2023-04-11T04:13:25.264Z,100633.94
2023-04-11T04:18:36.765Z,100647.88
2023-04-11T04:23:47.575Z,100655.69
2023-04-11T04:29:34.167Z,100659.13
2023-04-11T04:34:46.595Z,100662.59
2023-04-11T04:40:02.097Z,100667.84
2023-04-11T04:45:09.995Z,100685.06
2023-04-11T04:50:13.181Z,100685.94
2023-04-11T04:55:16.447Z,100687.91
2023-04-11T05:00:23.076Z,100689.59
2023-04-11T05:05:27.383Z,100697.34
2023-04-11T05:10:30.505Z,100708.66
2023-04-11T05:15:34.707Z,100718.09
2023-04-11T05:20:38.114Z,100710.28
2023-04-11T05:25:41.106Z,100714.59
2023-04-11T05:30:49.295Z,100724.91
2023-04-11T05:35:52.638Z,100722.25
2023-04-11T05:40:55.494Z,100728.25
2023-04-11T05:45:59.633Z,100745.63
2023-04-11T05:51:02.914Z,100749.06
2023-04-11T05:56:06.752Z,100758.59
2023-04-11T06:01:14.263Z,100755.84
2023-04-11T06:06:17.135Z,100763.78
2023-04-11T06:11:19.858Z,100774.09
2023-04-11T06:16:24.126Z,100767.91
2023-04-11T06:21:27.850Z,100764.41
2023-04-11T06:26:30.654Z,100770.28
2023-04-11T06:31:35.007Z,100778.66
2023-04-11T06:36:37.883Z,100779.59
2023-04-11T06:41:40.662Z,100782.13
2023-04-11T06:46:44.849Z,100790.16
2023-04-11T06:51:50.007Z,100764.16
2023-04-11T06:56:53.184Z,100786.97
2023-04-11T07:02:22.019Z,100784.78
2023-04-11T07:07:24.905Z,100797.81
2023-04-11T07:12:27.753Z,100809.97
2023-04-11T07:17:32.256Z,100818.13
2023-04-11T07:22:36.368Z,100826.16
2023-04-11T07:27:40.338Z,100826.81
2023-04-11T07:32:44.423Z,100830.13
2023-04-11T07:37:47.413Z,100839.53
2023-04-11T07:42:50.365Z,100840.50
2023-04-11T07:47:54.505Z,100852.03
2023-04-11T07:52:57.559Z,100854.34
2023-04-11T07:58:00.334Z,100859.03
2023-04-11T08:03:07.895Z,100861.28
2023-04-11T08:08:10.897Z,100862.50
2023-04-11T08:13:13.692Z,100882.28
2023-04-11T08:18:21.407Z,100868.88
2023-04-11T08:23:24.289Z,100884.69
2023-04-11T08:28:27.028Z,100900.19
2023-04-11T08:33:31.586Z,100890.72
2023-04-11T08:38:34.453Z,100890.16
2023-04-11T08:43:39.038Z,100918.91
2023-04-11T08:48:43.432Z,100910.41
2023-04-11T08:53:46.258Z,100917.91
2023-04-11T08:58:49.310Z,100952.91
2023-04-11T09:03:53.681Z,101000.56
2023-04-11T09:08:56.486Z,101015.84
2023-04-11T09:14:09.089Z,101035.03
2023-04-11T09:19:24.539Z,101071.38
2023-04-11T09:24:27.769Z,101071.19
2023-04-11T09:29:38.919Z,101069.03
2023-04-11T09:34:43.097Z,101075.34
2023-04-11T09:39:45.973Z,101087.44
2023-04-11T09:44:48.863Z,101093.91
2023-04-11T09:49:53.827Z,101084.72
2023-04-11T09:54:56.747Z,101106.59
2023-04-11T09:59:59.908Z,101099.00
2023-04-11T10:05:04.443Z,101112.75
2023-04-11T10:10:08.781Z,101115.84
2023-04-11T10:15:12.752Z,101125.91
2023-04-11T10:20:49.754Z,101128.47
2023-04-11T10:25:55.159Z,101141.38
2023-04-11T10:31:05.892Z,101151.81
2023-04-11T10:36:11.718Z,101148.41
2023-04-11T10:41:27.406Z,101151.13
2023-04-11T10:46:30.357Z,101150.41
2023-04-11T10:51:35.381Z,101150.41
2023-04-11T10:56:57.314Z,101160.38
2023-04-11T11:02:01.350Z,101155.47
2023-04-11T11:07:07.586Z,101154.63
2023-04-11T11:12:11.698Z,101177.50
2023-04-11T11:17:15.993Z,101172.91
2023-04-11T11:22:25.788Z,101175.09
2023-04-11T11:27:28.884Z,101188.63
2023-04-11T11:32:32.928Z,101177.31
2023-04-11T11:37:37.265Z,101178.28
2023-04-11T11:42:40.351Z,101191.00
2023-04-11T11:47:43.612Z,101191.53
2023-04-11T11:52:48.841Z,101203.88
2023-04-11T11:57:51.843Z,101213.75
2023-04-11T12:02:56.347Z,101204.47
2023-04-11T12:08:01.206Z,101212.41
2023-04-11T12:13:04.180Z,101235.72
2023-04-11T12:18:07.396Z,101224.72
2023-04-11T12:23:11.654Z,101247.25
2023-04-11T12:28:14.848Z,101243.66
2023-04-11T12:33:17.848Z,101255.56
2023-04-11T12:38:22.775Z,101260.47
2023-04-11T12:43:25.681Z,101266.84
2023-04-11T12:48:28.551Z,101272.50
2023-04-11T12:53:32.770Z,101257.81
2023-04-11T12:58:35.654Z,101268.63
2023-04-11T13:03:38.961Z,101262.94
2023-04-11T13:08:43.179Z,101253.31
2023-04-11T13:13:46.149Z,101254.63
2023-04-11T13:18:49.181Z,101249.47
2023-04-11T13:23:53.434Z,101238.81
2023-04-11T13:28:56.462Z,101247.69
2023-04-11T13:33:59.963Z,101234.72
2023-04-11T13:39:05.649Z,101242.03
2023-04-11T13:44:08.478Z,101225.75
2023-04-11T13:49:11.331Z,101243.91
2023-04-11T13:54:15.551Z,101227.22
2023-04-11T13:59:18.426Z,101226.22
2023-04-11T14:04:21.662Z,101212.91
2023-04-11T14:09:26.117Z,101213.63
2023-04-11T14:14:28.948Z,101197.97
2023-04-11T14:19:31.773Z,101199.88
2023-04-11T14:24:36.248Z,101193.03
2023-04-11T14:29:39.121Z,101189.38
2023-04-11T14:34:41.943Z,101191.88
2023-04-11T14:39:46.285Z,101183.16
2023-04-11T14:44:50.312Z,101180.03
2023-04-11T14:49:53.182Z,101176.91
2023-04-11T14:54:57.400Z,101163.81
2023-04-11T15:00:01.713Z,101158.75
2023-04-11T15:05:05.205Z,101157.38
2023-04-11T15:10:10.773Z,101156.50
2023-04-11T15:15:13.962Z,101146.72
2023-04-11T15:20:17.386Z,101145.66
2023-04-11T15:25:21.883Z,101142.13
2023-04-11T15:30:24.778Z,101136.47
2023-04-11T15:35:27.632Z,101135.88
2023-04-11T15:40:31.843Z,101126.50
2023-04-11T15:45:35.992Z,101130.47
2023-04-11T15:50:38.897Z,101122.16
2023-04-11T15:55:43.784Z,101113.88
2023-04-11T16:00:47.149Z,101096.66
2023-04-11T16:05:52.930Z,101100.63
2023-04-11T16:10:57.480Z,101102.69
2023-04-11T16:16:00.718Z,101094.69
2023-04-11T16:21:03.987Z,101087.72
2023-04-11T16:26:08.502Z,101080.25
2023-04-11T16:31:11.347Z,101064.44
2023-04-11T16:36:14.344Z,101068.38
2023-04-11T16:41:18.800Z,101064.69
2023-04-11T16:46:21.843Z,101056.84
2023-04-11T16:51:24.854Z,101050.09
2023-04-11T16:56:29.235Z,101043.06
2023-04-11T17:01:32.309Z,101030.03
2023-04-11T17:06:35.424Z,101027.19
2023-04-11T17:11:40.364Z,101024.59
2023-04-11T17:16:43.736Z,101021.69
2023-04-11T17:21:46.594Z,101017.31
2023-04-11T17:26:51.817Z,101021.16
2023-04-11T17:31:54.706Z,101015.34
2023-04-11T17:36:57.916Z,101022.88
2023-04-11T17:42:02.278Z,101013.41
2023-04-11T17:47:05.192Z,101003.78
2023-04-11T17:52:08.008Z,101012.94
2023-04-11T17:57:12.281Z,101012.66
2023-04-11T18:02:15.430Z,101016.59
2023-04-11T18:07:18.790Z,101011.19
2023-04-11T18:12:29.656Z,100997.88
2023-04-11T18:17:35.820Z,100983.13
2023-04-11T18:22:40.310Z,100978.66
2023-04-11T18:27:44.600Z,100962.75
2023-04-11T18:32:50.272Z,100957.53
2023-04-11T18:37:54.196Z,100947.28
2023-04-11T18:42:58.673Z,100930.81
2023-04-11T18:48:01.775Z,100915.19
2023-04-11T18:53:05.993Z,100910.97
2023-04-11T18:58:15.181Z,100891.00
2023-04-11T19:03:19.674Z,100878.94
2023-04-11T19:08:22.640Z,100868.53
2023-04-11T19:13:26.831Z,100869.34
2023-04-11T19:18:30.256Z,100846.06
2023-04-11T19:23:33.379Z,100846.16
2023-04-11T19:28:37.536Z,100839.13
2023-04-11T19:33:41.102Z,100832.53
2023-04-11T19:38:43.941Z,100822.72
2023-04-11T19:43:48.533Z,100807.84
2023-04-11T19:48:51.539Z,100787.25
2023-04-11T19:53:54.379Z,100772.16
2023-04-11T19:58:58.619Z,100768.50
2023-04-11T20:04:02.428Z,100758.09
2023-04-11T20:09:05.612Z,100739.91
2023-04-11T20:14:09.809Z,100720.53
2023-04-11T20:19:13.467Z,100716.31
2023-04-11T20:24:17.492Z,100702.25
2023-04-11T20:29:24.742Z,100687.09
2023-04-11T20:34:27.628Z,100674.16
2023-04-11T20:39:30.518Z,100663.00
2023-04-11T20:44:36.108Z,100652.50
2023-04-11T20:49:38.947Z,100642.81
2023-04-11T20:54:41.990Z,100613.78
2023-04-11T20:59:46.512Z,100603.41
2023-04-11T21:04:51.644Z,100598.97
2023-04-11T21:09:56.335Z,100585.59
2023-04-11T21:15:00.642Z,100573.63
2023-04-11T21:20:08.562Z,100567.88
2023-04-11T21:25:11.488Z,100566.91
2023-04-11T21:30:15.968Z,100554.75
2023-04-11T21:35:18.831Z,100544.28
2023-04-11T21:40:21.822Z,100540.63
2023-04-11T21:45:26.142Z,100533.66
2023-04-11T21:50:30.151Z,100531.72
2023-04-11T21:55:33.174Z,100522.97
2023-04-11T22:00:37.419Z,100522.50
2023-04-11T22:05:42.013Z,100514.00
2023-04-11T22:10:47.828Z,100508.66
2023-04-11T22:15:58.645Z,100485.63
2023-04-11T22:21:03.240Z,100448.00
2023-04-11T22:26:06.513Z,100455.09
2023-04-11T22:31:13.632Z,100450.81
2023-04-11T22:36:16.535Z,100442.84
2023-04-11T22:41:19.413Z,100419.47
2023-04-11T22:46:23.851Z,100395.09
2023-04-11T22:51:30.004Z,100373.94
2023-04-11T22:56:32.959Z,100359.06
2023-04-11T23:01:37.267Z,100344.00
2023-04-11T23:06:40.229Z,100319.56
2023-04-11T23:11:43.100Z,100314.56
2023-04-11T23:16:47.436Z,100306.13
2023-04-11T23:21:50.346Z,100288.31
2023-04-11T23:26:53.410Z,100274.63
2023-04-11T23:31:57.735Z,100257.53
2023-04-11T23:37:00.581Z,100241.25
2023-04-11T23:42:03.591Z,100217.78
2023-04-11T23:47:08.002Z,100187.66
2023-04-11T23:52:11.475Z,100164.59
2023-04-11T23:57:14.419Z,100152.66
